sensor_id;sensor_type;location;lat;lon;timestamp;pressure;altitude;pressure_sealevel;temperature
58102;BMP280;52034;51.926;6.320;2023-07-31T00:00:35;100980.72;;;17.74
58102;BMP280;52034;51.926;6.320;2023-07-31T00:01:36;100975.09;;;17.80
58102;BMP280;52034;51.926;6.320;2023-07-31T00:02:36;100974.34;;;17.76
58102;BMP280;52034;51.926;6.320;2023-07-31T00:03:37;100967.25;;;17.75
58102;BMP280;52034;51.926;6.320;2023-07-31T00:04:37;100976.47;;;17.71
58102;BMP280;52034;51.926;6.320;2023-07-31T00:05:37;100966.50;;;17.72
58102;BMP280;52034;51.926;6.320;2023-07-31T00:06:38;100968.66;;;17.74
58102;BMP280;52034;51.926;6.320;2023-07-31T00:07:38;100969.34;;;17.72
58102;BMP280;52034;51.926;6.320;2023-07-31T00:08:38;100968.66;;;17.74
58102;BMP280;52034;51.926;6.320;2023-07-31T00:09:39;100980.75;;;17.76
58102;BMP280;52034;51.926;6.320;2023-07-31T00:10:39;100973.63;;;17.71
58102;BMP280;52034;51.926;6.320;2023-07-31T00:11:39;100968.63;;;17.72
58102;BMP280;52034;51.926;6.320;2023-07-31T00:12:42;100967.22;;;17.73
58102;BMP280;52034;51.926;6.320;2023-07-31T00:13:42;100966.56;;;17.78
58102;BMP280;52034;51.926;6.320;2023-07-31T00:14:43;100956.59;;;17.77
58102;BMP280;52034;51.926;6.320;2023-07-31T00:15:43;100960.19;;;17.80
58102;BMP280;52034;51.926;6.320;2023-07-31T00:16:44;100963.72;;;17.78
58102;BMP280;52034;51.926;6.320;2023-07-31T00:17:44;100955.22;;;17.78
58102;BMP280;52034;51.926;6.320;2023-07-31T00:18:44;100958.78;;;17.81
58102;BMP280;52034;51.926;6.320;2023-07-31T00:19:44;100958.75;;;17.78
58102;BMP280;52034;51.926;6.320;2023-07-31T00:20:46;100956.59;;;17.77
58102;BMP280;52034;51.926;6.320;2023-07-31T00:21:46;100955.16;;;17.72
58102;BMP280;52034;51.926;6.320;2023-07-31T00:22:47;100953.06;;;17.77
58102;BMP280;52034;51.926;6.320;2023-07-31T00:23:47;100958.72;;;17.73
58102;BMP280;52034;51.926;6.320;2023-07-31T00:24:47;100955.16;;;17.72
58102;BMP280;52034;51.926;6.320;2023-07-31T00:25:48;100955.84;;;17.71
58102;BMP280;52034;51.926;6.320;2023-07-31T00:26:48;100946.63;;;17.72
58102;BMP280;52034;51.926;6.320;2023-07-31T00:27:48;100950.88;;;17.69
58102;BMP280;52034;51.926;6.320;2023-07-31T00:28:49;100948.06;;;17.71
58102;BMP280;52034;51.926;6.320;2023-07-31T00:29:49;100953.03;;;17.73
58102;BMP280;52034;51.926;6.320;2023-07-31T00:30:49;100946.59;;;17.68
58102;BMP280;52034;51.926;6.320;2023-07-31T00:31:50;100938.78;;;17.67
58102;BMP280;52034;51.926;6.320;2023-07-31T00:32:51;100942.34;;;17.69
58102;BMP280;52034;51.926;6.320;2023-07-31T00:33:52;100940.19;;;17.68
58102;BMP280;52034;51.926;6.320;2023-07-31T00:34:52;100943.09;;;17.76
58102;BMP280;52034;51.926;6.320;2023-07-31T00:35:52;100940.22;;;17.72
58102;BMP280;52034;51.926;6.320;2023-07-31T00:36:53;100944.50;;;17.73
58102;BMP280;52034;51.926;6.320;2023-07-31T00:37:53;100935.94;;;17.69
58102;BMP280;52034;51.926;6.320;2023-07-31T00:38:53;100928.91;;;17.76
58102;BMP280;52034;51.926;6.320;2023-07-31T00:39:54;100934.59;;;17.76
58102;BMP280;52034;51.926;6.320;2023-07-31T00:40:55;100933.19;;;17.77
58102;BMP280;52034;51.926;6.320;2023-07-31T00:41:55;100936.00;;;17.75
58102;BMP280;52034;51.926;6.320;2023-07-31T00:42:55;100931.03;;;17.71
58102;BMP280;52034;51.926;6.320;2023-07-31T00:43:56;100931.75;;;17.74
58102;BMP280;52034;51.926;6.320;2023-07-31T00:44:57;100926.03;;;17.72
58102;BMP280;52034;51.926;6.320;2023-07-31T00:45:58;100937.38;;;17.72
58102;BMP280;52034;51.926;6.320;2023-07-31T00:46:59;100926.06;;;17.74
58102;BMP280;52034;51.926;6.320;2023-07-31T00:48:00;100929.63;;;17.76
58102;BMP280;52034;51.926;6.320;2023-07-31T00:49:00;100929.66;;;17.78
58102;BMP280;52034;51.926;6.320;2023-07-31T00:50:00;100927.47;;;17.75
58102;BMP280;52034;51.926;6.320;2023-07-31T00:51:01;100921.13;;;17.76
58102;BMP280;52034;51.926;6.320;2023-07-31T00:52:01;100917.59;;;17.80
58102;BMP280;52034;51.926;6.320;2023-07-31T00:53:03;100916.88;;;17.79
58102;BMP280;52034;51.926;6.320;2023-07-31T00:54:03;100922.56;;;17.81
58102;BMP280;52034;51.926;6.320;2023-07-31T00:55:04;100913.28;;;17.73
58102;BMP280;52034;51.926;6.320;2023-07-31T00:56:05;100914.75;;;17.80
58102;BMP280;52034;51.926;6.320;2023-07-31T00:57:06;100912.59;;;17.78
58102;BMP280;52034;51.926;6.320;2023-07-31T00:58:08;100913.38;;;17.84
58102;BMP280;52034;51.926;6.320;2023-07-31T00:59:08;100916.19;;;17.81
58102;BMP280;52034;51.926;6.320;2023-07-31T01:00:09;100912.63;;;17.80
58102;BMP280;52034;51.926;6.320;2023-07-31T01:01:10;100909.78;;;17.82
58102;BMP280;52034;51.926;6.320;2023-07-31T01:02:10;100909.78;;;17.82
58102;BMP280;52034;51.926;6.320;2023-07-31T01:03:11;100909.06;;;17.81
58102;BMP280;52034;51.926;6.320;2023-07-31T01:04:12;100910.47;;;17.78
58102;BMP280;52034;51.926;6.320;2023-07-31T01:05:13;100903.38;;;17.77
58102;BMP280;52034;51.926;6.320;2023-07-31T01:07:42;100902.66;;;17.79
58102;BMP280;52034;51.926;6.320;2023-07-31T01:08:57;100898.34;;;17.74
58102;BMP280;52034;51.926;6.320;2023-07-31T01:10:11;100895.56;;;17.76
58102;BMP280;52034;51.926;6.320;2023-07-31T01:11:21;100894.81;;;17.74
58102;BMP280;52034;51.926;6.320;2023-07-31T01:12:23;100894.88;;;17.80
58102;BMP280;52034;51.926;6.320;2023-07-31T01:13:23;100894.91;;;17.83
58102;BMP280;52034;51.926;6.320;2023-07-31T01:14:24;100899.16;;;17.83
58102;BMP280;52034;51.926;6.320;2023-07-31T01:15:24;100893.47;;;17.84
58102;BMP280;52034;51.926;6.320;2023-07-31T01:16:25;100898.50;;;17.90
58102;BMP280;52034;51.926;6.320;2023-07-31T01:17:27;100900.63;;;17.89
58102;BMP280;52034;51.926;6.320;2023-07-31T01:18:28;100890.66;;;17.88
58102;BMP280;52034;51.926;6.320;2023-07-31T01:19:28;100882.19;;;17.92
58102;BMP280;52034;51.926;6.320;2023-07-31T01:20:30;100885.72;;;17.93
58102;BMP280;52034;51.926;6.320;2023-07-31T01:21:46;100885.06;;;18.00
58102;BMP280;52034;51.926;6.320;2023-07-31T01:25:56;100880.81;;;18.01
58102;BMP280;52034;51.926;6.320;2023-07-31T01:27:06;100882.22;;;18.04
58102;BMP280;52034;51.926;6.320;2023-07-31T01:28:14;100886.53;;;18.07
58102;BMP280;52034;51.926;6.320;2023-07-31T01:29:23;100885.13;;;18.06
58102;BMP280;52034;51.926;6.320;2023-07-31T01:30:28;100872.31;;;18.07
58102;BMP280;52034;51.926;6.320;2023-07-31T01:31:36;100880.16;;;18.07
58102;BMP280;52034;51.926;6.320;2023-07-31T01:32:42;100873.75;;;18.06
58102;BMP280;52034;51.926;6.320;2023-07-31T01:33:43;100887.28;;;18.12
58102;BMP280;52034;51.926;6.320;2023-07-31T01:34:45;100881.59;;;18.10
58102;BMP280;52034;51.926;6.320;2023-07-31T01:35:48;100881.59;;;18.12
58102;BMP280;52034;51.926;6.320;2023-07-31T01:36:49;100870.91;;;18.10
58102;BMP280;52034;51.926;6.320;2023-07-31T01:37:52;100873.78;;;18.12
58102;BMP280;52034;51.926;6.320;2023-07-31T01:38:58;100870.91;;;18.10
58102;BMP280;52034;51.926;6.320;2023-07-31T01:39:58;100880.91;;;18.13
58102;BMP280;52034;51.926;6.320;2023-07-31T01:40:59;100877.28;;;18.05
58102;BMP280;52034;51.926;6.320;2023-07-31T01:41:59;100875.16;;;18.07
58102;BMP280;52034;51.926;6.320;2023-07-31T01:43:00;100881.59;;;18.10
58102;BMP280;52034;51.926;6.320;2023-07-31T01:44:00;100880.88;;;18.11
58102;BMP280;52034;51.926;6.320;2023-07-31T01:45:00;100877.34;;;18.13
58102;BMP280;52034;51.926;6.320;2023-07-31T01:46:01;100864.53;;;18.12
58102;BMP280;52034;51.926;6.320;2023-07-31T01:47:02;100876.59;;;18.10
58102;BMP280;52034;51.926;6.320;2023-07-31T01:48:02;100869.50;;;18.11
58102;BMP280;52034;51.926;6.320;2023-07-31T01:49:02;100870.94;;;18.12
58102;BMP280;52034;51.926;6.320;2023-07-31T01:50:03;100866.69;;;18.13
58102;BMP280;52034;51.926;6.320;2023-07-31T01:51:03;100871.66;;;18.13
58102;BMP280;52034;51.926;6.320;2023-07-31T01:52:04;100873.78;;;18.14
58102;BMP280;52034;51.926;6.320;2023-07-31T01:53:05;100858.13;;;18.11
58102;BMP280;52034;51.926;6.320;2023-07-31T01:54:05;100863.13;;;18.11
58102;BMP280;52034;51.926;6.320;2023-07-31T01:55:06;100865.25;;;18.08
58102;BMP280;52034;51.926;6.320;2023-07-31T01:56:06;100855.28;;;18.07
58102;BMP280;52034;51.926;6.320;2023-07-31T01:57:07;100848.91;;;18.07
58102;BMP280;52034;51.926;6.320;2023-07-31T01:58:09;100856.00;;;18.08
58102;BMP280;52034;51.926;6.320;2023-07-31T01:59:10;100858.84;;;18.10
58102;BMP280;52034;51.926;6.320;2023-07-31T02:00:10;100853.88;;;18.10
58102;BMP280;52034;51.926;6.320;2023-07-31T02:01:14;100852.44;;;18.11
58102;BMP280;52034;51.926;6.320;2023-07-31T02:02:14;100856.75;;;18.12
58102;BMP280;52034;51.926;6.320;2023-07-31T02:03:14;100852.47;;;18.13
58102;BMP280;52034;51.926;6.320;2023-07-31T02:04:15;100851.72;;;18.09
58102;BMP280;52034;51.926;6.320;2023-07-31T02:05:17;100845.34;;;18.10
58102;BMP280;52034;51.926;6.320;2023-07-31T02:06:17;100850.34;;;18.12
58102;BMP280;52034;51.926;6.320;2023-07-31T02:07:18;100851.75;;;18.11
58102;BMP280;52034;51.926;6.320;2023-07-31T02:08:18;100850.31;;;18.08
58102;BMP280;52034;51.926;6.320;2023-07-31T02:09:19;100845.38;;;18.08
58102;BMP280;52034;51.926;6.320;2023-07-31T02:10:19;100847.50;;;18.14
58102;BMP280;52034;51.926;6.320;2023-07-31T02:11:20;100846.78;;;18.11
58102;BMP280;52034;51.926;6.320;2023-07-31T02:12:20;100841.09;;;18.09
58102;BMP280;52034;51.926;6.320;2023-07-31T02:13:20;100848.19;;;18.10
58102;BMP280;52034;51.926;6.320;2023-07-31T02:14:21;100840.34;;;18.09
58102;BMP280;52034;51.926;6.320;2023-07-31T02:15:21;100833.25;;;18.06
58102;BMP280;52034;51.926;6.320;2023-07-31T02:16:22;100838.22;;;18.07
58102;BMP280;52034;51.926;6.320;2023-07-31T02:17:22;100832.56;;;18.07
58102;BMP280;52034;51.926;6.320;2023-07-31T02:18:22;100834.66;;;18.09
58102;BMP280;52034;51.926;6.320;2023-07-31T02:19:23;100837.50;;;18.09
58102;BMP280;52034;51.926;6.320;2023-07-31T02:20:23;100834.00;;;18.08
58102;BMP280;52034;51.926;6.320;2023-07-31T02:21:24;100833.28;;;18.12
58102;BMP280;52034;51.926;6.320;2023-07-31T02:22:24;100841.09;;;18.11
58102;BMP280;52034;51.926;6.320;2023-07-31T02:23:24;100831.88;;;18.13
58102;BMP280;52034;51.926;6.320;2023-07-31T02:24:25;100840.38;;;18.13
58102;BMP280;52034;51.926;6.320;2023-07-31T02:25:25;100843.97;;;18.13
58102;BMP280;52034;51.926;6.320;2023-07-31T02:26:26;100838.22;;;18.07
58102;BMP280;52034;51.926;6.320;2023-07-31T02:27:26;100842.53;;;18.08
58102;BMP280;52034;51.926;6.320;2023-07-31T02:28:28;100838.97;;;18.10
58102;BMP280;52034;51.926;6.320;2023-07-31T02:29:28;100841.09;;;18.09
58102;BMP280;52034;51.926;6.320;2023-07-31T02:30:29;100837.56;;;18.13
58102;BMP280;52034;51.926;6.320;2023-07-31T02:31:29;100822.59;;;18.06
58102;BMP280;52034;51.926;6.320;2023-07-31T02:32:29;100834.00;;;18.08
58102;BMP280;52034;51.926;6.320;2023-07-31T02:33:30;100836.09;;;18.06
58102;BMP280;52034;51.926;6.320;2023-07-31T02:34:30;100821.19;;;18.03
58102;BMP280;52034;51.926;6.320;2023-07-31T02:35:31;100817.59;;;18.03
58102;BMP280;52034;51.926;6.320;2023-07-31T02:36:31;100825.41;;;18.00
58102;BMP280;52034;51.926;6.320;2023-07-31T02:37:31;100817.63;;;18.05
58102;BMP280;52034;51.926;6.320;2023-07-31T02:38:32;100821.91;;;18.04
58102;BMP280;52034;51.926;6.320;2023-07-31T02:39:32;100816.94;;;18.08
58102;BMP280;52034;51.926;6.320;2023-07-31T02:40:33;100813.38;;;18.08
58102;BMP280;52034;51.926;6.320;2023-07-31T02:41:33;100816.22;;;18.10
58102;BMP280;52034;51.926;6.320;2023-07-31T02:42:33;100812.66;;;18.07
58102;BMP280;52034;51.926;6.320;2023-07-31T02:43:34;100819.03;;;18.06
58102;BMP280;52034;51.926;6.320;2023-07-31T02:44:35;100816.91;;;18.06
58102;BMP280;52034;51.926;6.320;2023-07-31T02:45:36;100816.22;;;18.10
58102;BMP280;52034;51.926;6.320;2023-07-31T02:46:36;100817.63;;;18.05
58102;BMP280;52034;51.926;6.320;2023-07-31T02:47:36;100822.63;;;18.08
58102;BMP280;52034;51.926;6.320;2023-07-31T02:48:37;100811.28;;;18.08
58102;BMP280;52034;51.926;6.320;2023-07-31T02:49:37;100804.84;;;18.06
58102;BMP280;52034;51.926;6.320;2023-07-31T02:50:37;100815.50;;;18.07
58102;BMP280;52034;51.926;6.320;2023-07-31T02:51:38;100814.13;;;18.08
58102;BMP280;52034;51.926;6.320;2023-07-31T02:52:38;100799.88;;;18.06
58102;BMP280;52034;51.926;6.320;2023-07-31T02:53:38;100811.94;;;18.09
58102;BMP280;52034;51.926;6.320;2023-07-31T02:54:39;100816.91;;;18.06
58102;BMP280;52034;51.926;6.320;2023-07-31T02:55:39;100810.53;;;18.08
58102;BMP280;52034;51.926;6.320;2023-07-31T02:56:40;100805.59;;;18.08
58102;BMP280;52034;51.926;6.320;2023-07-31T02:57:40;100808.34;;;18.00
58102;BMP280;52034;51.926;6.320;2023-07-31T02:58:40;100801.28;;;17.99
58102;BMP280;52034;51.926;6.320;2023-07-31T02:59:41;100801.25;;;18.01
58102;BMP280;52034;51.926;6.320;2023-07-31T03:00:42;100805.50;;;18.00
58102;BMP280;52034;51.926;6.320;2023-07-31T03:01:43;100789.91;;;17.99
58102;BMP280;52034;51.926;6.320;2023-07-31T03:02:43;100792.72;;;18.01
58102;BMP280;52034;51.926;6.320;2023-07-31T03:03:43;100797.00;;;17.98
58102;BMP280;52034;51.926;6.320;2023-07-31T03:04:46;100802.66;;;17.98
58102;BMP280;52034;51.926;6.320;2023-07-31T03:05:46;100795.56;;;18.01
58102;BMP280;52034;51.926;6.320;2023-07-31T03:06:46;100795.56;;;17.97
58102;BMP280;52034;51.926;6.320;2023-07-31T03:07:47;100799.09;;;17.96
58102;BMP280;52034;51.926;6.320;2023-07-31T03:08:47;100799.13;;;17.98
58102;BMP280;52034;51.926;6.320;2023-07-31T03:09:49;100801.25;;;18.01
58102;BMP280;52034;51.926;6.320;2023-07-31T03:10:49;100794.88;;;18.03
58102;BMP280;52034;51.926;6.320;2023-07-31T03:11:49;100807.66;;;18.02
58102;BMP280;52034;51.926;6.320;2023-07-31T03:12:50;100813.38;;;18.08
58102;BMP280;52034;51.926;6.320;2023-07-31T03:13:50;100804.88;;;18.10
58102;BMP280;52034;51.926;6.320;2023-07-31T03:14:50;100806.97;;;18.05
58102;BMP280;52034;51.926;6.320;2023-07-31T03:15:51;100806.97;;;18.05
58102;BMP280;52034;51.926;6.320;2023-07-31T03:16:51;100799.84;;;18.04
58102;BMP280;52034;51.926;6.320;2023-07-31T03:17:51;100808.38;;;18.02
58102;BMP280;52034;51.926;6.320;2023-07-31T03:18:52;100804.84;;;18.04
58102;BMP280;52034;51.926;6.320;2023-07-31T03:19:52;100805.53;;;18.04
58102;BMP280;52034;51.926;6.320;2023-07-31T03:20:52;100806.28;;;18.07
58102;BMP280;52034;51.926;6.320;2023-07-31T03:21:53;100803.41;;;18.05
58102;BMP280;52034;51.926;6.320;2023-07-31T03:22:53;100798.41;;;17.97
58102;BMP280;52034;51.926;6.320;2023-07-31T03:23:53;100799.81;;;17.96
58102;BMP280;52034;51.926;6.320;2023-07-31T03:24:54;100805.50;;;17.94
58102;BMP280;52034;51.926;6.320;2023-07-31T03:26:03;100810.44;;;17.90
58102;BMP280;52034;51.926;6.320;2023-07-31T03:27:04;100814.03;;;17.96
58102;BMP280;52034;51.926;6.320;2023-07-31T03:28:04;100806.94;;;18.01
58102;BMP280;52034;51.926;6.320;2023-07-31T03:29:04;100802.66;;;17.96
58102;BMP280;52034;51.926;6.320;2023-07-31T03:30:05;100805.50;;;18.00
58102;BMP280;52034;51.926;6.320;2023-07-31T03:31:06;100809.75;;;17.97
58102;BMP280;52034;51.926;6.320;2023-07-31T03:32:08;100799.09;;;18.00
58102;BMP280;52034;51.926;6.320;2023-07-31T03:33:09;100808.38;;;18.02
58102;BMP280;52034;51.926;6.320;2023-07-31T03:34:09;100814.03;;;17.98
58102;BMP280;52034;51.926;6.320;2023-07-31T03:35:09;100812.59;;;17.95
58102;BMP280;52034;51.926;6.320;2023-07-31T03:36:10;100809.03;;;17.91
58102;BMP280;52034;51.926;6.320;2023-07-31T03:37:10;100814.00;;;17.92
58102;BMP280;52034;51.926;6.320;2023-07-31T03:38:10;100814.03;;;17.96
58102;BMP280;52034;51.926;6.320;2023-07-31T03:39:11;100809.75;;;17.97
58102;BMP280;52034;51.926;6.320;2023-07-31T03:40:11;100803.41;;;17.99
58102;BMP280;52034;51.926;6.320;2023-07-31T03:41:12;100804.13;;;17.99
58102;BMP280;52034;51.926;6.320;2023-07-31T03:42:12;100797.00;;;17.98
58102;BMP280;52034;51.926;6.320;2023-07-31T03:43:12;100807.63;;;17.96
58102;BMP280;52034;51.926;6.320;2023-07-31T03:44:13;100796.97;;;17.92
58102;BMP280;52034;51.926;6.320;2023-07-31T03:45:14;100799.78;;;17.88
58102;BMP280;52034;51.926;6.320;2023-07-31T03:46:14;100797.66;;;17.91
58102;BMP280;52034;51.926;6.320;2023-07-31T03:47:14;100794.84;;;17.95
58102;BMP280;52034;51.926;6.320;2023-07-31T03:48:15;100799.13;;;17.94
58102;BMP280;52034;51.926;6.320;2023-07-31T03:49:16;100799.81;;;17.92
58102;BMP280;52034;51.926;6.320;2023-07-31T03:50:16;100789.84;;;17.89
58102;BMP280;52034;51.926;6.320;2023-07-31T03:51:17;100794.78;;;17.87
58102;BMP280;52034;51.926;6.320;2023-07-31T03:52:17;100796.94;;;17.90
58102;BMP280;52034;51.926;6.320;2023-07-31T03:53:18;100791.94;;;17.87
58102;BMP280;52034;51.926;6.320;2023-07-31T03:54:18;100791.25;;;17.90
58102;BMP280;52034;51.926;6.320;2023-07-31T03:55:18;100803.34;;;17.91
58102;BMP280;52034;51.926;6.320;2023-07-31T03:56:19;100796.91;;;17.86
58102;BMP280;52034;51.926;6.320;2023-07-31T03:57:19;100796.94;;;17.88
58102;BMP280;52034;51.926;6.320;2023-07-31T03:58:19;100784.88;;;17.90
58102;BMP280;52034;51.926;6.320;2023-07-31T03:59:20;100789.13;;;17.89
58102;BMP280;52034;51.926;6.320;2023-07-31T04:00:20;100791.25;;;17.90
58102;BMP280;52034;51.926;6.320;2023-07-31T04:01:22;100789.81;;;17.87
58102;BMP280;52034;51.926;6.320;2023-07-31T04:02:22;100789.84;;;17.91
58102;BMP280;52034;51.926;6.320;2023-07-31T04:03:23;100787.69;;;17.84
58102;BMP280;52034;51.926;6.320;2023-07-31T04:04:23;100789.13;;;17.89
58102;BMP280;52034;51.926;6.320;2023-07-31T04:05:23;100777.75;;;17.85
58102;BMP280;52034;51.926;6.320;2023-07-31T04:06:24;100789.81;;;17.85
58102;BMP280;52034;51.926;6.320;2023-07-31T04:07:24;100785.53;;;17.81
58102;BMP280;52034;51.926;6.320;2023-07-31T04:08:24;100786.19;;;17.77
58102;BMP280;52034;51.926;6.320;2023-07-31T04:09:25;100781.25;;;17.81
58102;BMP280;52034;51.926;6.320;2023-07-31T04:10:25;100776.28;;;17.76
58102;BMP280;52034;51.926;6.320;2023-07-31T04:11:26;100784.09;;;17.81
58102;BMP280;52034;51.926;6.320;2023-07-31T04:12:26;100784.13;;;17.83
58102;BMP280;52034;51.926;6.320;2023-07-31T04:13:26;100781.97;;;17.76
58102;BMP280;52034;51.926;6.320;2023-07-31T04:14:28;100780.56;;;17.79
58102;BMP280;52034;51.926;6.320;2023-07-31T04:15:29;100785.50;;;17.78
58102;BMP280;52034;51.926;6.320;2023-07-31T04:16:29;100777.00;;;17.78
58102;BMP280;52034;51.926;6.320;2023-07-31T04:17:29;100779.88;;;17.83
58102;BMP280;52034;51.926;6.320;2023-07-31T04:18:30;100783.44;;;17.85
58102;BMP280;52034;51.926;6.320;2023-07-31T04:19:31;100779.19;;;17.84
58102;BMP280;52034;51.926;6.320;2023-07-31T04:20:31;100779.19;;;17.88
58102;BMP280;52034;51.926;6.320;2023-07-31T04:21:32;100779.88;;;17.83
58102;BMP280;52034;51.926;6.320;2023-07-31T04:22:32;100779.19;;;17.88
58102;BMP280;52034;51.926;6.320;2023-07-31T04:23:32;100782.03;;;17.88
58102;BMP280;52034;51.926;6.320;2023-07-31T04:24:33;100773.47;;;17.86
58102;BMP280;52034;51.926;6.320;2023-07-31T04:25:33;100769.25;;;17.85
58102;BMP280;52034;51.926;6.320;2023-07-31T04:26:35;100789.81;;;17.85
58102;BMP280;52034;51.926;6.320;2023-07-31T04:27:35;100780.59;;;17.85
58102;BMP280;52034;51.926;6.320;2023-07-31T04:28:35;100775.63;;;17.87
58102;BMP280;52034;51.926;6.320;2023-07-31T04:29:36;100782.72;;;17.84
58102;BMP280;52034;51.926;6.320;2023-07-31T04:30:36;100785.56;;;17.90
58102;BMP280;52034;51.926;6.320;2023-07-31T04:31:36;100778.47;;;17.87
58102;BMP280;52034;51.926;6.320;2023-07-31T04:32:36;100782.03;;;17.90
58102;BMP280;52034;51.926;6.320;2023-07-31T04:33:37;100784.19;;;17.89
58102;BMP280;52034;51.926;6.320;2023-07-31T04:34:37;100789.13;;;17.89
58102;BMP280;52034;51.926;6.320;2023-07-31T04:35:38;100784.19;;;17.89
58102;BMP280;52034;51.926;6.320;2023-07-31T04:36:38;100786.25;;;17.87
58102;BMP280;52034;51.926;6.320;2023-07-31T04:37:38;100790.56;;;17.88
58102;BMP280;52034;51.926;6.320;2023-07-31T04:38:39;100775.63;;;17.87
58102;BMP280;52034;51.926;6.320;2023-07-31T04:39:41;100777.03;;;17.86
58102;BMP280;52034;51.926;6.320;2023-07-31T04:40:41;100782.03;;;17.90
58102;BMP280;52034;51.926;6.320;2023-07-31T04:41:41;100780.56;;;17.87
58102;BMP280;52034;51.926;6.320;2023-07-31T04:42:42;100784.16;;;17.87
58102;BMP280;52034;51.926;6.320;2023-07-31T04:43:42;100779.19;;;17.90
58102;BMP280;52034;51.926;6.320;2023-07-31T04:44:42;100778.50;;;17.93
58102;BMP280;52034;51.926;6.320;2023-07-31T04:45:46;100774.97;;;17.97
58102;BMP280;52034;51.926;6.320;2023-07-31T04:46:47;100768.56;;;17.98
58102;BMP280;52034;51.926;6.320;2023-07-31T04:47:48;100770.69;;;17.96
58102;BMP280;52034;51.926;6.320;2023-07-31T04:48:48;100771.41;;;17.94
58102;BMP280;52034;51.926;6.320;2023-07-31T04:49:48;100770.03;;;17.99
58102;BMP280;52034;51.926;6.320;2023-07-31T04:50:49;100760.75;;;17.95
58102;BMP280;52034;51.926;6.320;2023-07-31T04:51:49;100768.56;;;17.94
58102;BMP280;52034;51.926;6.320;2023-07-31T04:52:49;100761.47;;;17.95
58102;BMP280;52034;51.926;6.320;2023-07-31T04:53:50;100767.16;;;17.97
58102;BMP280;52034;51.926;6.320;2023-07-31T04:54:50;100764.31;;;17.95
58102;BMP280;52034;51.926;6.320;2023-07-31T04:55:50;100764.34;;;17.99
58102;BMP280;52034;51.926;6.320;2023-07-31T04:56:51;100753.72;;;18.04
58102;BMP280;52034;51.926;6.320;2023-07-31T04:57:52;100772.16;;;18.03
58102;BMP280;52034;51.926;6.320;2023-07-31T04:58:53;100758.69;;;18.05
58102;BMP280;52034;51.926;6.320;2023-07-31T04:59:53;100758.69;;;18.05
58102;BMP280;52034;51.926;6.320;2023-07-31T05:00:53;100755.84;;;18.03
58102;BMP280;52034;51.926;6.320;2023-07-31T05:01:54;100760.13;;;18.08
58102;BMP280;52034;51.926;6.320;2023-07-31T05:02:54;100753.69;;;18.06
58102;BMP280;52034;51.926;6.320;2023-07-31T05:03:54;100745.19;;;18.04
58102;BMP280;52034;51.926;6.320;2023-07-31T05:04:55;100753.69;;;18.06
58102;BMP280;52034;51.926;6.320;2023-07-31T05:05:55;100744.47;;;18.07
58102;BMP280;52034;51.926;6.320;2023-07-31T05:06:55;100753.72;;;18.08
58102;BMP280;52034;51.926;6.320;2023-07-31T05:07:56;100755.84;;;18.09
58102;BMP280;52034;51.926;6.320;2023-07-31T05:08:56;100748.03;;;18.12
58102;BMP280;52034;51.926;6.320;2023-07-31T05:09:56;100747.31;;;18.11
58102;BMP280;52034;51.926;6.320;2023-07-31T05:10:57;100748.03;;;18.12
58102;BMP280;52034;51.926;6.320;2023-07-31T05:11:57;100748.03;;;18.12
58102;BMP280;52034;51.926;6.320;2023-07-31T05:12:57;100743.78;;;18.13
58102;BMP280;52034;51.926;6.320;2023-07-31T05:13:58;100747.31;;;18.11
58102;BMP280;52034;51.926;6.320;2023-07-31T05:14:58;100748.75;;;18.10
58102;BMP280;52034;51.926;6.320;2023-07-31T05:15:58;100746.63;;;18.13
58102;BMP280;52034;51.926;6.320;2023-07-31T05:16:59;100742.38;;;18.12
58102;BMP280;52034;51.926;6.320;2023-07-31T05:17:59;100740.94;;;18.15
58102;BMP280;52034;51.926;6.320;2023-07-31T05:18:59;100750.19;;;18.15
58102;BMP280;52034;51.926;6.320;2023-07-31T05:19:59;100741.63;;;18.11
58102;BMP280;52034;51.926;6.320;2023-07-31T05:21:00;100751.59;;;18.14
58102;BMP280;52034;51.926;6.320;2023-07-31T05:22:00;100748.03;;;18.12
58102;BMP280;52034;51.926;6.320;2023-07-31T05:23:00;100743.09;;;18.16
58102;BMP280;52034;51.926;6.320;2023-07-31T05:24:01;100737.38;;;18.10
58102;BMP280;52034;51.926;6.320;2023-07-31T05:25:01;100730.31;;;18.13
58102;BMP280;52034;51.926;6.320;2023-07-31T05:26:05;100734.56;;;18.12
58102;BMP280;52034;51.926;6.320;2023-07-31T05:27:06;100723.19;;;18.20
58102;BMP280;52034;51.926;6.320;2023-07-31T05:28:06;100731.75;;;18.22
58102;BMP280;52034;51.926;6.320;2023-07-31T05:29:07;100715.41;;;18.21
58102;BMP280;52034;51.926;6.320;2023-07-31T05:30:07;100721.09;;;18.23
58102;BMP280;52034;51.926;6.320;2023-07-31T05:31:08;100720.38;;;18.24
58102;BMP280;52034;51.926;6.320;2023-07-31T05:32:08;100714.72;;;18.26
58102;BMP280;52034;51.926;6.320;2023-07-31T05:33:09;100722.50;;;18.28
58102;BMP280;52034;51.926;6.320;2023-07-31T05:34:09;100720.38;;;18.28
58102;BMP280;52034;51.926;6.320;2023-07-31T05:35:10;100715.44;;;18.31
58102;BMP280;52034;51.926;6.320;2023-07-31T05:36:10;100720.41;;;18.36
58102;BMP280;52034;51.926;6.320;2023-07-31T05:37:10;100714.75;;;18.34
58102;BMP280;52034;51.926;6.320;2023-07-31T05:38:11;100713.31;;;18.35
58102;BMP280;52034;51.926;6.320;2023-07-31T05:39:12;100705.47;;;18.36
58102;BMP280;52034;51.926;6.320;2023-07-31T05:40:12;100707.63;;;18.41
58102;BMP280;52034;51.926;6.320;2023-07-31T05:41:13;100706.22;;;18.38
58102;BMP280;52034;51.926;6.320;2023-07-31T05:42:13;100717.56;;;18.40
58102;BMP280;52034;51.926;6.320;2023-07-31T05:43:14;100711.88;;;18.42
58102;BMP280;52034;51.926;6.320;2023-07-31T05:44:14;100707.63;;;18.43
58102;BMP280;52034;51.926;6.320;2023-07-31T05:45:15;100701.91;;;18.37
58102;BMP280;52034;51.926;6.320;2023-07-31T05:46:15;100716.84;;;18.38
58102;BMP280;52034;51.926;6.320;2023-07-31T05:47:15;100714.75;;;18.38
58102;BMP280;52034;51.926;6.320;2023-07-31T05:48:16;100705.47;;;18.42
58102;BMP280;52034;51.926;6.320;2023-07-31T05:49:16;100704.75;;;18.37
58102;BMP280;52034;51.926;6.320;2023-07-31T05:50:16;100707.63;;;18.39